Time;durP1;ratioP1;P1;durP2;ratioP2;P2;SDS_P1;SDS_P2;PMS_P1;PMS_P2;Temp;Humidity;BMP_temperature;BMP_pressure;BME280_temperature;BME280_humidity;BME280_pressure;Samples;Min_cycle;Max_cycle;Signal;HPM_P1;HPM_P2
2023/07/18 00:00:40;;;;;;;2.80;1.50;;;16.70;99.90;;;;;;5045656;28;20013;-41
2023/07/18 00:03:07;;;;;;;3.20;1.40;;;16.70;99.90;;;;;;5045072;28;20017;-42
2023/07/18 00:05:36;;;;;;;3.50;1.20;;;16.70;99.90;;;;;;5045404;28;20040;-42
2023/07/18 00:08:03;;;;;;;2.33;1.40;;;16.70;99.90;;;;;;5044243;28;20075;-41
2023/07/18 00:10:37;;;;;;;3.80;1.52;;;16.70;99.90;;;;;;5046012;28;20032;-42
2023/07/18 00:13:04;;;;;;;4.00;1.38;;;16.70;99.90;;;;;;5045787;28;20036;-43
2023/07/18 00:15:29;;;;;;;2.80;1.33;;;16.60;99.90;;;;;;5045331;28;20087;-42
2023/07/18 00:17:55;;;;;;;2.42;1.02;;;16.60;99.90;;;;;;5044932;28;20612;-42
2023/07/18 00:20:24;;;;;;;3.85;1.88;;;16.60;99.90;;;;;;5045639;28;20079;-42
2023/07/18 00:22:50;;;;;;;2.30;1.20;;;16.60;99.90;;;;;;5044488;28;20027;-42
2023/07/18 00:25:20;;;;;;;3.97;1.73;;;16.60;99.90;;;;;;5045354;28;20159;-42
2023/07/18 00:27:49;;;;;;;2.55;1.50;;;16.60;99.90;;;;;;5045344;28;20033;-42
2023/07/18 00:30:16;;;;;;;4.30;1.80;;;16.60;99.90;;;;;;5044433;28;20433;-41
2023/07/18 00:32:44;;;;;;;4.10;1.55;;;16.60;99.90;;;;;;5044609;28;20043;-42
2023/07/18 00:35:11;;;;;;;4.78;1.70;;;16.60;99.90;;;;;;5045068;28;20420;-41
2023/07/18 00:37:38;;;;;;;3.05;1.30;;;16.60;99.90;;;;;;5044735;28;20029;-42
2023/07/18 00:40:10;;;;;;;2.58;1.80;;;16.60;99.90;;;;;;5045063;28;20029;-42
2023/07/18 00:42:37;;;;;;;3.60;1.30;;;16.60;99.90;;;;;;5044793;28;20033;-43
2023/07/18 00:45:05;;;;;;;3.28;1.27;;;16.50;99.90;;;;;;5044786;28;20106;-42
2023/07/18 00:47:31;;;;;;;3.20;1.63;;;16.50;99.90;;;;;;5045418;28;20392;-42
2023/07/18 00:49:59;;;;;;;2.17;1.30;;;16.40;99.90;;;;;;5045208;28;20766;-42
2023/07/18 00:52:28;;;;;;;2.13;1.40;;;16.40;99.90;;;;;;5044214;28;20048;-42
2023/07/18 00:54:53;;;;;;;3.90;1.60;;;16.40;99.90;;;;;;5044985;28;20121;-42
2023/07/18 00:57:19;;;;;;;4.13;1.60;;;16.40;99.90;;;;;;5044061;28;20469;-42
2023/07/18 00:59:44;;;;;;;3.42;1.50;;;16.30;99.90;;;;;;5044803;28;20500;-42
2023/07/18 01:02:10;;;;;;;3.35;1.90;;;16.30;99.90;;;;;;5045195;28;20032;-42
2023/07/18 01:04:36;;;;;;;2.33;1.65;;;16.30;99.90;;;;;;5043941;28;20511;-42
2023/07/18 01:07:02;;;;;;;2.78;1.40;;;16.20;99.90;;;;;;5044850;28;20373;-42
2023/07/18 01:09:28;;;;;;;2.65;1.58;;;16.20;99.90;;;;;;5045900;28;20044;-41
2023/07/18 01:11:55;;;;;;;5.05;2.05;;;16.20;99.90;;;;;;5048397;28;20720;-42
2023/07/18 01:14:24;;;;;;;2.85;1.40;;;16.20;99.90;;;;;;5048807;28;20448;-42
2023/07/18 01:16:52;;;;;;;2.83;1.40;;;16.10;99.90;;;;;;5048506;28;20052;-41
2023/07/18 01:19:17;;;;;;;3.15;1.67;;;16.10;99.90;;;;;;5047675;28;20059;-42
2023/07/18 01:21:43;;;;;;;3.17;1.67;;;16.00;99.90;;;;;;5048229;28;20064;-41
2023/07/18 01:24:09;;;;;;;2.40;1.20;;;16.00;99.90;;;;;;5048366;28;20068;-41
2023/07/18 01:26:34;;;;;;;2.63;1.67;;;16.00;99.90;;;;;;5047901;28;20032;-40
2023/07/18 01:29:00;;;;;;;4.00;1.77;;;16.00;99.90;;;;;;5048315;28;20024;-42
2023/07/18 01:31:27;;;;;;;2.72;1.63;;;16.00;99.90;;;;;;5048390;28;20461;-41
2023/07/18 01:33:53;;;;;;;2.92;1.60;;;15.90;99.90;;;;;;5047589;28;20025;-42
2023/07/18 01:36:19;;;;;;;2.75;1.60;;;15.90;99.90;;;;;;5048456;28;20025;-42
2023/07/18 01:38:44;;;;;;;2.75;1.52;;;15.90;99.90;;;;;;5048292;28;20299;-41
2023/07/18 01:41:10;;;;;;;3.30;1.55;;;15.90;99.90;;;;;;5047594;28;20108;-41
2023/07/18 01:43:35;;;;;;;6.20;1.65;;;15.80;99.90;;;;;;5048453;28;20403;-41
2023/07/18 01:46:01;;;;;;;3.30;1.63;;;15.80;99.90;;;;;;5048007;28;20032;-42
2023/07/18 01:48:27;;;;;;;2.30;1.42;;;15.80;99.90;;;;;;5048460;28;20032;-43
2023/07/18 01:50:56;;;;;;;3.40;1.42;;;15.70;99.90;;;;;;5048216;28;20071;-41
2023/07/18 01:53:22;;;;;;;3.10;1.48;;;15.80;99.90;;;;;;5047818;28;20029;-41
2023/07/18 01:55:47;;;;;;;3.33;1.52;;;15.70;99.90;;;;;;5046928;28;20029;-41
2023/07/18 01:58:13;;;;;;;2.53;1.58;;;15.70;99.90;;;;;;5048700;28;20037;-41
2023/07/18 02:00:41;;;;;;;2.38;1.40;;;15.60;99.90;;;;;;5047006;28;20032;-41
2023/07/18 02:03:07;;;;;;;2.45;1.35;;;15.60;99.90;;;;;;5048534;28;20072;-41
2023/07/18 02:05:32;;;;;;;2.33;1.50;;;15.60;99.90;;;;;;5047752;28;20480;-41
2023/07/18 02:07:59;;;;;;;2.00;1.48;;;15.60;99.90;;;;;;5047218;28;20068;-42
2023/07/18 02:10:27;;;;;;;3.42;1.30;;;15.60;99.90;;;;;;5047837;28;20075;-42
2023/07/18 02:12:57;;;;;;;3.20;1.60;;;15.60;99.90;;;;;;5048032;28;20025;-41
2023/07/18 02:15:23;;;;;;;1.88;1.35;;;15.50;99.90;;;;;;5046789;28;20484;-41
2023/07/18 02:17:48;;;;;;;2.20;1.58;;;15.60;99.90;;;;;;5047304;28;20071;-42
2023/07/18 02:20:14;;;;;;;1.85;1.30;;;15.50;99.90;;;;;;5047333;28;20048;-42
2023/07/18 02:22:41;;;;;;;1.52;1.33;;;15.50;99.90;;;;;;5046535;28;20094;-41
2023/07/18 02:25:08;;;;;;;3.67;1.65;;;15.50;99.90;;;;;;5047157;28;20028;-41
2023/07/18 02:27:39;;;;;;;3.22;1.50;;;15.50;99.90;;;;;;5047850;28;20038;-42
2023/07/18 02:30:08;;;;;;;2.92;1.40;;;15.50;99.90;;;;;;5046828;28;20061;-41
2023/07/18 02:32:37;;;;;;;1.55;1.20;;;15.50;99.90;;;;;;5047910;28;20044;-41
2023/07/18 02:35:03;;;;;;;1.92;1.30;;;15.50;99.90;;;;;;5047896;28;20150;-42
2023/07/18 02:37:28;;;;;;;2.28;1.60;;;15.40;99.90;;;;;;5046838;28;20091;-42
2023/07/18 02:39:54;;;;;;;3.88;1.77;;;15.50;99.90;;;;;;5047185;28;20032;-41
2023/07/18 02:42:20;;;;;;;2.47;1.38;;;15.40;99.90;;;;;;5047158;28;20040;-42
2023/07/18 02:44:48;;;;;;;2.42;1.23;;;15.40;99.90;;;;;;5046836;28;20029;-42
2023/07/18 02:47:14;;;;;;;3.33;1.60;;;15.40;99.90;;;;;;5046612;28;20473;-41
2023/07/18 02:49:40;;;;;;;1.85;1.27;;;15.40;99.90;;;;;;5047339;28;20029;-41
2023/07/18 02:52:07;;;;;;;3.15;1.50;;;15.40;99.90;;;;;;5046960;28;20037;-41
2023/07/18 02:54:32;;;;;;;4.18;1.70;;;15.40;99.90;;;;;;5047028;28;20381;-42
2023/07/18 02:56:58;;;;;;;4.22;1.30;;;15.40;99.90;;;;;;5046219;28;20469;-43
2023/07/18 02:59:25;;;;;;;2.65;1.50;;;15.40;99.90;;;;;;5047285;28;20029;-42
2023/07/18 03:01:50;;;;;;;3.50;1.40;;;15.40;99.90;;;;;;5046681;28;20424;-42
2023/07/18 03:04:18;;;;;;;1.80;1.38;;;15.40;99.90;;;;;;5046382;28;20021;-41
2023/07/18 03:06:51;;;;;;;3.05;1.48;;;15.30;99.90;;;;;;5046912;28;20120;-41
2023/07/18 03:09:17;;;;;;;2.08;1.60;;;15.30;99.90;;;;;;5046371;28;20057;-41
2023/07/18 03:11:52;;;;;;;2.55;1.60;;;15.30;99.90;;;;;;5045382;28;20031;-42
2023/07/18 03:14:21;;;;;;;4.70;1.90;;;15.30;99.90;;;;;;5046783;28;20035;-42
2023/07/18 03:16:47;;;;;;;2.33;1.42;;;15.30;99.90;;;;;;5046616;28;20049;-42
2023/07/18 03:19:14;;;;;;;4.28;1.35;;;15.30;99.90;;;;;;5045497;28;20033;-42
2023/07/18 03:21:39;;;;;;;3.33;1.70;;;15.30;99.90;;;;;;5046499;28;20048;-42
2023/07/18 03:24:07;;;;;;;3.05;1.80;;;15.30;99.90;;;;;;5045916;28;20034;-42
2023/07/18 03:26:39;;;;;;;2.72;1.80;;;15.30;99.90;;;;;;5045698;28;20029;-41
2023/07/18 03:29:05;;;;;;;3.00;1.55;;;15.30;99.90;;;;;;5045715;28;20024;-41
2023/07/18 03:31:32;;;;;;;3.63;1.92;;;15.30;99.90;;;;;;5046593;28;20078;-41
2023/07/18 03:33:58;;;;;;;2.58;1.90;;;15.20;99.90;;;;;;5044515;28;20056;-42
2023/07/18 03:36:23;;;;;;;2.55;1.42;;;15.20;99.90;;;;;;5046138;28;20500;-42
2023/07/18 03:38:49;;;;;;;3.10;1.70;;;15.20;99.90;;;;;;5046418;28;20032;-42
2023/07/18 03:41:14;;;;;;;2.90;1.90;;;15.20;99.90;;;;;;5045166;28;20038;-42
2023/07/18 03:43:40;;;;;;;2.80;1.70;;;15.20;99.90;;;;;;5045216;28;20112;-43
2023/07/18 03:46:05;;;;;;;3.25;1.55;;;15.10;99.90;;;;;;5045491;28;20021;-42
2023/07/18 03:48:31;;;;;;;2.53;1.73;;;15.10;99.90;;;;;;5045612;28;20021;-41
2023/07/18 03:50:57;;;;;;;3.63;2.13;;;15.20;99.90;;;;;;5045964;28;20065;-42
2023/07/18 03:53:22;;;;;;;4.15;2.13;;;15.10;99.90;;;;;;5045137;28;20488;-42
2023/07/18 03:55:48;;;;;;;4.03;1.75;;;15.10;99.90;;;;;;5045583;28;20070;-43
2023/07/18 03:58:14;;;;;;;2.40;1.80;;;15.10;99.90;;;;;;5045701;28;20388;-42
2023/07/18 04:00:39;;;;;;;3.08;1.90;;;15.20;99.90;;;;;;5045250;28;20082;-42
2023/07/18 04:03:05;;;;;;;2.17;1.92;;;15.10;99.90;;;;;;5045470;28;20037;-41
2023/07/18 04:05:30;;;;;;;2.97;1.83;;;15.20;99.90;;;;;;5045402;28;20021;-41
2023/07/18 04:07:56;;;;;;;4.00;1.70;;;15.20;99.90;;;;;;5044962;28;20057;-41
2023/07/18 04:10:22;;;;;;;3.35;1.58;;;15.20;99.90;;;;;;5045423;28;20480;-41
2023/07/18 04:12:47;;;;;;;3.42;2.00;;;15.20;99.90;;;;;;5045189;28;20582;-41
2023/07/18 04:15:14;;;;;;;2.25;1.85;;;15.10;99.90;;;;;;5044501;28;20110;-41
2023/07/18 04:17:40;;;;;;;2.88;1.60;;;15.10;99.90;;;;;;5045318;28;20032;-41
2023/07/18 04:20:09;;;;;;;2.63;1.92;;;15.10;99.90;;;;;;5044642;28;20021;-41
2023/07/18 04:22:34;;;;;;;4.68;2.10;;;15.10;99.90;;;;;;5044753;28;20036;-41
2023/07/18 04:25:00;;;;;;;4.75;2.00;;;15.10;99.90;;;;;;5045034;28;20021;-41
2023/07/18 04:27:27;;;;;;;6.45;2.45;;;15.10;99.90;;;;;;5045245;28;20028;-42
2023/07/18 04:29:53;;;;;;;3.95;2.03;;;15.10;99.90;;;;;;5044408;28;20602;-41
2023/07/18 04:32:20;;;;;;;4.30;2.13;;;15.20;99.90;;;;;;5045036;28;20098;-42
2023/07/18 04:34:49;;;;;;;2.78;2.20;;;15.10;99.90;;;;;;5045436;28;20025;-42
2023/07/18 04:37:14;;;;;;;3.05;1.90;;;15.10;99.90;;;;;;5045275;28;20112;-44
2023/07/18 04:39:40;;;;;;;4.07;2.67;;;15.10;99.90;;;;;;5045331;28;20586;-42
2023/07/18 04:42:06;;;;;;;3.75;1.95;;;15.10;99.90;;;;;;5045739;28;20044;-41
2023/07/18 04:44:34;;;;;;;2.72;2.00;;;15.10;99.90;;;;;;5044251;28;20134;-43
2023/07/18 04:47:00;;;;;;;3.50;2.03;;;15.10;99.90;;;;;;5045732;28;20075;-42
2023/07/18 04:49:25;;;;;;;3.97;2.35;;;15.10;99.90;;;;;;5044774;28;20481;-42
2023/07/18 04:51:52;;;;;;;4.53;2.50;;;15.10;99.90;;;;;;5045239;28;20082;-43
2023/07/18 04:54:18;;;;;;;3.40;2.10;;;15.10;99.90;;;;;;5045701;28;20583;-42
2023/07/18 04:56:44;;;;;;;3.95;2.33;;;15.10;99.90;;;;;;5044188;28;20107;-42
2023/07/18 04:59:09;;;;;;;5.15;2.67;;;15.20;99.90;;;;;;5045186;28;20104;-42
2023/07/18 05:01:36;;;;;;;4.28;2.28;;;15.20;99.90;;;;;;5044684;28;20033;-42
2023/07/18 05:04:05;;;;;;;2.40;2.05;;;15.20;99.90;;;;;;5043761;28;20064;-42
2023/07/18 05:06:31;;;;;;;3.70;2.20;;;15.20;99.90;;;;;;5044491;28;20025;-43
2023/07/18 05:08:57;;;;;;;2.85;2.25;;;15.20;99.90;;;;;;5044300;28;20048;-41
2023/07/18 05:11:28;;;;;;;3.55;2.50;;;15.30;99.90;;;;;;5043805;28;20017;-41
2023/07/18 05:13:54;;;;;;;3.53;2.40;;;15.30;99.90;;;;;;5044967;28;20147;-41
2023/07/18 05:16:19;;;;;;;3.30;2.10;;;15.30;99.90;;;;;;5044347;28;20441;-42
2023/07/18 05:18:45;;;;;;;2.88;2.20;;;15.40;99.90;;;;;;5044308;28;20029;-41
2023/07/18 05:21:11;;;;;;;5.53;3.00;;;15.40;99.90;;;;;;5044016;28;20483;-42
2023/07/18 05:23:37;;;;;;;4.15;2.38;;;15.40;99.90;;;;;;5044558;28;20378;-41
2023/07/18 05:26:03;;;;;;;4.07;2.35;;;15.50;99.90;;;;;;5043798;28;20028;-41
2023/07/18 05:28:29;;;;;;;3.00;2.30;;;15.50;99.90;;;;;;5045251;28;20025;-41
2023/07/18 05:30:55;;;;;;;2.28;2.08;;;15.50;99.90;;;;;;5044367;28;20581;-41
2023/07/18 05:33:20;;;;;;;3.72;2.58;;;15.50;99.90;;;;;;5039971;28;20035;-41
2023/07/18 05:35:47;;;;;;;4.07;2.65;;;15.60;99.90;;;;;;5044542;28;20067;-41
2023/07/18 05:38:12;;;;;;;4.95;3.00;;;15.60;99.90;;;;;;5044463;28;20082;-41
2023/07/18 05:40:38;;;;;;;4.20;2.80;;;15.60;99.90;;;;;;5044333;28;20534;-42
2023/07/18 05:43:03;;;;;;;4.45;2.90;;;15.60;99.90;;;;;;5044447;28;20385;-42
2023/07/18 05:45:29;;;;;;;5.10;2.85;;;15.70;99.90;;;;;;5044830;28;20024;-42
2023/07/18 05:47:55;;;;;;;5.60;3.50;;;15.70;99.90;;;;;;5043771;28;20041;-42
2023/07/18 05:50:20;;;;;;;4.68;3.88;;;15.70;99.90;;;;;;5044319;28;20017;-42
2023/07/18 05:52:46;;;;;;;5.47;3.72;;;15.70;99.90;;;;;;5044034;28;20041;-41
2023/07/18 05:55:13;;;;;;;5.25;3.97;;;15.70;99.90;;;;;;5044277;28;20043;-42
2023/07/18 05:57:42;;;;;;;4.82;3.40;;;15.70;99.90;;;;;;5046357;28;20108;-41
2023/07/18 06:00:11;;;;;;;4.50;3.08;;;15.70;99.90;;;;;;5047795;28;20021;-41
2023/07/18 06:02:37;;;;;;;3.75;2.63;;;15.80;99.90;;;;;;5047560;28;20771;-43
2023/07/18 06:05:04;;;;;;;4.70;2.60;;;15.80;99.90;;;;;;5048154;28;20064;-41
2023/07/18 06:07:31;;;;;;;3.00;2.70;;;15.80;99.90;;;;;;5047567;28;20122;-42
2023/07/18 06:09:56;;;;;;;3.17;2.70;;;15.90;99.90;;;;;;5047323;28;20028;-42
2023/07/18 06:12:22;;;;;;;3.95;2.60;;;15.90;99.90;;;;;;5047592;28;20037;-42
2023/07/18 06:14:48;;;;;;;4.35;3.60;;;15.90;99.90;;;;;;5046793;28;20032;-42
2023/07/18 06:17:13;;;;;;;4.63;3.45;;;16.00;99.90;;;;;;5047819;28;20047;-41
2023/07/18 06:19:39;;;;;;;6.63;3.58;;;16.00;99.90;;;;;;5047772;28;20461;-42
2023/07/18 06:22:05;;;;;;;3.35;3.05;;;16.10;99.90;;;;;;5046617;28;20025;-42
2023/07/18 06:24:35;;;;;;;3.83;2.92;;;16.10;99.90;;;;;;5047346;28;20120;-42
2023/07/18 06:27:01;;;;;;;4.03;2.88;;;16.10;99.90;;;;;;5047512;28;20021;-41
2023/07/18 06:29:30;;;;;;;5.50;3.10;;;16.20;99.90;;;;;;5046493;28;20029;-42
2023/07/18 06:31:56;;;;;;;5.97;2.63;;;16.30;99.90;;;;;;5047640;28;20032;-43
2023/07/18 06:34:25;;;;;;;5.00;3.30;;;16.30;99.90;;;;;;5047224;28;20067;-42
2023/07/18 06:36:51;;;;;;;3.75;2.85;;;16.30;99.90;;;;;;5047103;28;20039;-41
2023/07/18 06:39:16;;;;;;;4.07;2.83;;;16.40;99.90;;;;;;5047137;28;20022;-41
2023/07/18 06:41:43;;;;;;;3.65;2.80;;;16.40;99.90;;;;;;5047584;28;20033;-40
2023/07/18 06:44:11;;;;;;;3.75;2.90;;;16.40;99.90;;;;;;5046146;28;20060;-42
2023/07/18 06:46:37;;;;;;;4.75;2.33;;;16.50;99.90;;;;;;5047125;28;20040;-42
2023/07/18 06:49:03;;;;;;;3.53;2.42;;;16.50;99.90;;;;;;5046088;28;20456;-42
2023/07/18 06:51:28;;;;;;;4.38;2.40;;;16.60;99.90;;;;;;5047519;28;20144;-41
2023/07/18 06:53:57;;;;;;;5.82;3.17;;;16.60;99.90;;;;;;5047922;28;20060;-42
2023/07/18 06:56:23;;;;;;;6.38;2.90;;;16.70;99.90;;;;;;5046246;28;20140;-41
2023/07/18 06:58:49;;;;;;;4.25;2.63;;;16.70;99.90;;;;;;5028130;28;20473;-42
2023/07/18 07:01:14;;;;;;;4.20;2.47;;;16.80;99.90;;;;;;5046538;28;20028;-42
2023/07/18 07:03:40;;;;;;;5.70;2.80;;;16.80;99.90;;;;;;5046776;28;20481;-42
2023/07/18 07:06:16;;;;;;;4.18;2.38;;;17.00;99.90;;;;;;5046440;28;20068;-42
2023/07/18 07:08:42;;;;;;;3.90;2.45;;;17.10;99.90;;;;;;5046413;28;20053;-42
2023/07/18 07:11:11;;;;;;;4.70;2.00;;;17.20;99.90;;;;;;5045088;28;20362;-42
2023/07/18 07:13:37;;;;;;;4.03;2.50;;;17.30;99.90;;;;;;5046620;28;20128;-41
2023/07/18 07:16:06;;;;;;;3.58;2.50;;;17.40;99.90;;;;;;5046245;28;20048;-42
2023/07/18 07:18:32;;;;;;;5.47;2.50;;;17.50;99.90;;;;;;5045628;28;20115;-42
2023/07/18 07:20:58;;;;;;;4.32;2.33;;;17.50;99.90;;;;;;5046582;28;20148;-42
2023/07/18 07:23:24;;;;;;;4.03;2.50;;;17.60;99.90;;;;;;5046053;28;20021;-41
2023/07/18 07:25:49;;;;;;;3.53;2.05;;;17.60;99.90;;;;;;5045177;28;20083;-41
2023/07/18 07:28:15;;;;;;;3.67;2.50;;;17.60;99.90;;;;;;5046263;28;20087;-41
2023/07/18 07:30:40;;;;;;;4.28;2.45;;;17.60;99.90;;;;;;5046800;28;20033;-43
2023/07/18 07:33:06;;;;;;;5.32;2.40;;;17.60;99.90;;;;;;5045450;28;20037;-43
2023/07/18 07:35:32;;;;;;;4.32;2.45;;;17.60;99.90;;;;;;5046294;28;20039;-42
2023/07/18 07:37:58;;;;;;;3.60;2.20;;;17.60;99.90;;;;;;5046328;28;20029;-42
2023/07/18 07:40:24;;;;;;;3.35;2.25;;;17.70;99.90;;;;;;5045583;28;20026;-43
2023/07/18 07:42:50;;;;;;;4.35;2.58;;;17.70;99.90;;;;;;5046428;28;20396;-42
2023/07/18 07:45:16;;;;;;;3.42;2.10;;;17.70;99.90;;;;;;5045435;28;20117;-45
2023/07/18 07:47:43;;;;;;;3.83;2.50;;;17.80;99.90;;;;;;5045898;28;20020;-42
2023/07/18 07:50:09;;;;;;;6.18;2.38;;;17.80;99.90;;;;;;5046628;28;20035;-42
2023/07/18 07:52:35;;;;;;;4.93;2.47;;;17.90;99.90;;;;;;5044861;28;20060;-42
2023/07/18 07:55:01;;;;;;;3.95;2.30;;;17.90;99.90;;;;;;5045903;28;20110;-42
2023/07/18 07:57:27;;;;;;;3.60;2.50;;;17.90;99.90;;;;;;5046096;28;20033;-42
2023/07/18 07:59:53;;;;;;;2.58;1.88;;;18.00;99.90;;;;;;5045320;28;20045;-41
2023/07/18 08:02:28;;;;;;;2.60;2.15;;;18.00;99.90;;;;;;5045770;28;20021;-43
2023/07/18 08:04:53;;;;;;;3.35;2.20;;;18.10;99.90;;;;;;5045615;28;20655;-42
2023/07/18 08:07:19;;;;;;;2.38;1.70;;;18.10;99.90;;;;;;5044295;28;20029;-42
2023/07/18 08:09:45;;;;;;;3.85;1.90;;;18.20;99.90;;;;;;5044979;28;20033;-42
2023/07/18 08:12:12;;;;;;;5.95;2.20;;;18.20;99.90;;;;;;5044321;28;20047;-41
2023/07/18 08:14:38;;;;;;;2.10;1.77;;;18.30;99.90;;;;;;5045026;28;20514;-42
2023/07/18 08:17:05;;;;;;;5.45;1.95;;;18.40;99.90;;;;;;5045015;28;20029;-42
2023/07/18 08:19:36;;;;;;;2.80;1.88;;;18.50;99.90;;;;;;5045344;28;20059;-42
2023/07/18 08:22:03;;;;;;;3.40;1.90;;;18.50;99.90;;;;;;5044135;28;20025;-42
2023/07/18 08:24:29;;;;;;;3.60;2.08;;;18.70;99.90;;;;;;5045707;28;20025;-42
2023/07/18 08:26:57;;;;;;;2.83;1.52;;;18.70;99.90;;;;;;5045093;28;20032;-41
2023/07/18 08:29:26;;;;;;;4.28;1.90;;;18.80;99.90;;;;;;5044674;28;20020;-41
2023/07/18 08:31:54;;;;;;;3.05;1.80;;;18.80;99.90;;;;;;5045137;28;20492;-42
2023/07/18 08:34:20;;;;;;;2.60;1.60;;;18.80;99.90;;;;;;5044175;28;20044;-42
2023/07/18 08:36:47;;;;;;;2.22;1.35;;;18.90;99.90;;;;;;5045508;28;20597;-41
2023/07/18 08:39:13;;;;;;;2.47;1.50;;;18.90;99.90;;;;;;5044660;28;20534;-42
2023/07/18 08:41:45;;;;;;;2.13;1.60;;;19.00;99.90;;;;;;5044294;28;20775;-42
2023/07/18 08:44:15;;;;;;;1.73;1.40;;;19.20;99.90;;;;;;5044696;28;20420;-42
2023/07/18 08:46:47;;;;;;;3.75;1.65;;;19.20;99.90;;;;;;5044802;28;20035;-42
2023/07/18 08:49:14;;;;;;;1.50;1.30;;;19.30;99.90;;;;;;5043595;28;20464;-42
2023/07/18 08:51:44;;;;;;;3.15;1.60;;;19.30;99.90;;;;;;5044849;28;20746;-42
2023/07/18 08:54:12;;;;;;;1.63;1.40;;;19.40;99.90;;;;;;5044624;28;20043;-42
2023/07/18 08:56:44;;;;;;;1.52;1.20;;;19.60;99.90;;;;;;5044182;28;20145;-42
2023/07/18 08:59:13;;;;;;;2.78;1.40;;;19.70;99.90;;;;;;5045480;28;20021;-42
2023/07/18 09:01:49;;;;;;;1.63;1.05;;;19.80;99.90;;;;;;5044723;28;20047;-42
2023/07/18 09:04:18;;;;;;;1.92;1.00;;;19.80;99.90;;;;;;5044092;28;20124;-42
2023/07/18 09:06:56;;;;;;;1.85;1.35;;;19.90;99.90;;;;;;5044898;28;20025;-42
2023/07/18 09:09:23;;;;;;;1.65;1.13;;;20.00;99.90;;;;;;5043930;28;20059;-42
2023/07/18 09:11:55;;;;;;;1.70;0.90;;;20.00;99.90;;;;;;5043442;28;20029;-42
2023/07/18 09:14:29;;;;;;;1.60;0.93;;;20.10;99.90;;;;;;5043938;28;20029;-42
2023/07/18 09:16:56;;;;;;;1.35;0.90;;;20.20;99.90;;;;;;5044435;28;20102;-41
2023/07/18 09:19:42;;;;;;;1.33;0.90;;;20.30;99.90;;;;;;5044741;28;20354;-42
2023/07/18 09:22:10;;;;;;;2.13;0.80;;;20.40;99.90;;;;;;5045015;28;20037;-42
2023/07/18 09:24:37;;;;;;;1.42;0.73;;;20.40;99.90;;;;;;5044325;28;20025;-42
2023/07/18 09:27:08;;;;;;;1.85;1.02;;;20.50;99.90;;;;;;5045060;28;20025;-42
2023/07/18 09:29:34;;;;;;;2.58;0.90;;;20.60;99.90;;;;;;5044920;28;20041;-42
2023/07/18 09:31:59;;;;;;;1.10;0.85;;;20.70;99.90;;;;;;5045645;28;20037;-41
2023/07/18 09:34:27;;;;;;;1.42;0.85;;;20.70;99.90;;;;;;5048755;28;20441;-42
2023/07/18 09:37:01;;;;;;;1.60;0.80;;;20.70;99.90;;;;;;5048063;28;20464;-42
2023/07/18 09:39:27;;;;;;;1.50;0.93;;;20.80;99.90;;;;;;5048100;28;20060;-42
2023/07/18 09:41:54;;;;;;;1.65;1.08;;;20.80;99.90;;;;;;5048809;28;20028;-42
2023/07/18 09:44:21;;;;;;;1.65;1.00;;;20.80;99.90;;;;;;5048551;28;20487;-43
2023/07/18 09:46:49;;;;;;;1.52;0.90;;;20.90;99.90;;;;;;5047994;28;20021;-42
2023/07/18 09:49:16;;;;;;;2.95;0.90;;;20.90;99.90;;;;;;5048242;28;20017;-42
2023/07/18 09:51:49;;;;;;;2.58;1.10;;;21.00;99.90;;;;;;5047426;28;20379;-43
2023/07/18 09:54:14;;;;;;;;;;;21.00;99.90;;;;;;5048749;28;20039;-42
2023/07/18 09:56:44;;;;;;;1.77;0.93;;;21.10;99.90;;;;;;5048311;28;19904;-42
2023/07/18 09:59:10;;;;;;;2.00;0.95;;;21.10;99.90;;;;;;5047362;28;20654;-42
2023/07/18 10:01:37;;;;;;;1.40;0.90;;;21.10;99.90;;;;;;5047786;28;20144;-41
2023/07/18 10:04:03;;;;;;;2.30;1.00;;;21.20;99.90;;;;;;5047849;28;20052;-41
2023/07/18 10:06:28;;;;;;;2.20;0.95;;;21.20;99.90;;;;;;5047656;28;20065;-41
2023/07/18 10:08:55;;;;;;;1.05;0.80;;;21.20;99.90;;;;;;5048273;28;20095;-41
2023/07/18 10:11:23;;;;;;;2.15;0.77;;;21.30;99.90;;;;;;5047663;28;20028;-42
2023/07/18 10:13:55;;;;;;;1.00;0.60;;;21.40;99.60;;;;;;5046762;28;20150;-42
2023/07/18 10:16:21;;;;;;;1.35;0.88;;;21.40;99.60;;;;;;5047836;28;20472;-41
2023/07/18 10:18:48;;;;;;;0.88;0.70;;;21.40;99.10;;;;;;5047599;28;20017;-42
2023/07/18 10:24:26;;;;;;;3.53;0.90;;;21.30;98.80;;;;;;5043075;28;20029;-42
2023/07/18 10:26:54;;;;;;;2.00;0.77;;;21.30;97.80;;;;;;5047457;28;20111;-42
2023/07/18 10:29:19;;;;;;;2.35;0.85;;;21.20;97.90;;;;;;5047832;28;20025;-41
2023/07/18 10:31:45;;;;;;;2.38;0.80;;;21.20;98.00;;;;;;5047469;28;20353;-42
2023/07/18 10:34:14;;;;;;;1.83;0.65;;;21.20;97.90;;;;;;5047076;28;20029;-42
2023/07/18 10:36:53;;;;;;;0.85;0.50;;;21.20;97.90;;;;;;5048155;28;20095;-41
2023/07/18 10:39:19;;;;;;;1.02;0.52;;;21.20;98.00;;;;;;5047767;28;20358;-41
2023/07/18 10:41:48;;;;;;;1.15;0.60;;;21.30;97.90;;;;;;5046808;28;20560;-42
2023/07/18 10:44:14;;;;;;;1.58;0.60;;;21.30;97.70;;;;;;5047012;28;20036;-43
2023/07/18 10:46:40;;;;;;;1.25;0.60;;;21.40;97.60;;;;;;5047698;28;20578;-42
2023/07/18 10:49:07;;;;;;;0.70;0.50;;;21.40;97.60;;;;;;5046643;28;20233;-42
2023/07/18 10:51:36;;;;;;;2.33;0.60;;;21.40;97.60;;;;;;5047157;28;20494;-42
2023/07/18 10:54:06;;;;;;;0.52;0.45;;;21.40;97.40;;;;;;5043358;28;20028;-42
2023/07/18 10:56:32;;;;;;;1.40;0.50;;;21.50;97.60;;;;;;5047080;28;20029;-42
2023/07/18 10:58:58;;;;;;;1.15;0.65;;;21.40;97.70;;;;;;5047059;28;20025;-42
2023/07/18 11:01:25;;;;;;;1.17;0.50;;;21.40;97.60;;;;;;5047421;28;20048;-43
2023/07/18 11:03:51;;;;;;;1.73;0.60;;;21.50;97.40;;;;;;5045776;28;20047;-42
2023/07/18 11:06:16;;;;;;;0.80;0.60;;;21.50;97.30;;;;;;5047123;28;20541;-42
2023/07/18 11:08:45;;;;;;;3.20;0.70;;;21.50;97.20;;;;;;5046101;28;20052;-42
2023/07/18 11:11:14;;;;;;;1.55;0.65;;;21.60;97.10;;;;;;5046301;28;20028;-42
2023/07/18 11:13:43;;;;;;;1.65;0.77;;;21.50;97.10;;;;;;5046437;28;20043;-42
2023/07/18 11:16:15;;;;;;;1.60;0.85;;;21.60;97.00;;;;;;5045698;28;20564;-42
2023/07/18 11:18:44;;;;;;;;;;;21.70;96.50;;;;;;5047570;28;20116;-42
2023/07/18 11:21:11;;;;;;;1.05;0.63;;;21.70;96.40;;;;;;5046487;28;19909;-41
2023/07/18 11:23:46;;;;;;;0.75;0.60;;;21.70;96.50;;;;;;5045638;28;20025;-42
2023/07/18 11:26:21;;;;;;;1.73;0.70;;;21.80;96.60;;;;;;5046398;28;20076;-41
2023/07/18 11:28:56;;;;;;;2.50;0.75;;;21.90;96.60;;;;;;5046333;28;20028;-42
2023/07/18 11:31:41;;;;;;;1.75;0.70;;;21.90;96.50;;;;;;5045586;28;20028;-42
2023/07/18 11:34:08;;;;;;;1.10;0.50;;;22.00;96.50;;;;;;5046086;28;20044;-42
2023/07/18 11:36:36;;;;;;;3.13;0.93;;;22.10;96.40;;;;;;5046241;28;20025;-42
2023/07/18 11:39:06;;;;;;;3.13;0.80;;;22.20;95.70;;;;;;5044713;28;20432;-43
2023/07/18 11:41:39;;;;;;;0.75;0.52;;;22.40;95.50;;;;;;5045909;28;20580;-42
2023/07/18 11:44:06;;;;;;;1.85;0.60;;;22.50;95.60;;;;;;5045783;28;20124;-42
2023/07/18 11:46:39;;;;;;;1.60;0.68;;;22.60;95.40;;;;;;5045381;28;20021;-41
2023/07/18 11:49:06;;;;;;;2.20;0.60;;;22.60;95.00;;;;;;5045750;28;20546;-42
2023/07/18 11:51:32;;;;;;;1.15;0.60;;;22.50;94.50;;;;;;5045442;28;20070;-42
2023/07/18 11:54:02;;;;;;;1.77;0.60;;;22.40;94.80;;;;;;5045055;28;20488;-41
2023/07/18 11:56:28;;;;;;;4.22;0.98;;;22.40;95.10;;;;;;5045739;28;20132;-42
2023/07/18 11:58:54;;;;;;;0.82;0.40;;;22.40;94.30;;;;;;5045224;28;20103;-41
2023/07/18 12:01:20;;;;;;;1.55;0.63;;;22.40;94.30;;;;;;5045578;28;20487;-42
2023/07/18 12:03:46;;;;;;;1.10;1.00;;;22.40;94.20;;;;;;5045725;28;20485;-42
2023/07/18 12:06:11;;;;;;;1.40;0.70;;;22.40;94.40;;;;;;5044556;28;20663;-41
2023/07/18 12:08:37;;;;;;;3.15;0.80;;;22.40;94.10;;;;;;5045044;28;20053;-41
2023/07/18 12:11:09;;;;;;;1.25;0.70;;;22.30;94.00;;;;;;5045397;28;20900;-46
2023/07/18 12:13:38;;;;;;;0.60;0.52;;;22.40;93.30;;;;;;5045024;28;20045;-42
2023/07/18 12:16:07;;;;;;;0.80;0.80;;;22.30;93.30;;;;;;5044595;28;20113;-42
2023/07/18 12:18:32;;;;;;;0.70;0.60;;;22.30;93.40;;;;;;5046152;28;20067;-41
2023/07/18 12:20:58;;;;;;;0.60;0.38;;;22.40;93.80;;;;;;5044687;28;20851;-41
2023/07/18 12:23:26;;;;;;;1.80;0.77;;;22.50;93.50;;;;;;5045456;28;20039;-41
2023/07/18 12:25:52;;;;;;;1.10;0.50;;;22.60;93.50;;;;;;5045923;28;20104;-42
2023/07/18 12:28:18;;;;;;;0.57;0.47;;;22.80;93.50;;;;;;5044631;28;20112;-41
2023/07/18 12:30:43;;;;;;;0.93;0.43;;;22.90;93.50;;;;;;5045190;28;20033;-41
2023/07/18 12:33:09;;;;;;;0.80;0.50;;;23.00;93.30;;;;;;5045481;28;20036;-41
2023/07/18 12:35:36;;;;;;;1.65;0.60;;;23.20;93.00;;;;;;5044842;28;20032;-41
2023/07/18 12:38:03;;;;;;;1.70;0.50;;;23.20;92.60;;;;;;5045271;28;20031;-42
2023/07/18 12:40:29;;;;;;;1.85;0.60;;;23.20;92.50;;;;;;5044446;28;20021;-41
2023/07/18 12:42:58;;;;;;;2.50;0.50;;;23.10;92.30;;;;;;5045391;28;20029;-41
2023/07/18 12:45:24;;;;;;;1.88;0.70;;;23.10;92.00;;;;;;5045372;28;20163;-40
2023/07/18 12:47:50;;;;;;;0.80;0.50;;;23.00;91.60;;;;;;5044126;28;20009;-41
2023/07/18 12:50:15;;;;;;;1.08;0.60;;;23.00;91.40;;;;;;5045083;28;20021;-42